Time;durP1;ratioP1;P1;durP2;ratioP2;P2;SDS_P1;SDS_P2;PMS_P1;PMS_P2;Temp;Humidity;BMP_temperature;BMP_pressure;BME280_temperature;BME280_humidity;BME280_pressure;Samples;Min_cycle;Max_cycle;Signal;HPM_P1;HPM_P2
2022/08/28 00:00:39;;;;;;;23.55;11.43;;;;;;;;;;3364514;42;20123;-60
2022/08/28 00:03:05;;;;;;;21.52;11.77;;;;;;;;;;3364434;42;20094;-60
2022/08/28 00:05:31;;;;;;;21.80;11.50;;;;;;;;;;3364433;42;20143;-61
2022/08/28 00:07:57;;;;;;;21.58;11.32;;;;;;;;;;3364377;42;20088;-59
2022/08/28 00:10:23;;;;;;;21.90;10.67;;;;;;;;;;3366114;42;20143;-63
2022/08/28 00:12:50;;;;;;;23.17;10.75;;;;;;;;;;3366060;42;20107;-63
2022/08/28 00:15:19;;;;;;;22.17;10.57;;;;;;;;;;3366318;42;20727;-61
2022/08/28 00:17:45;;;;;;;21.98;10.82;;;;;;;;;;3366245;42;20138;-60
2022/08/28 00:20:17;;;;;;;20.52;10.90;;;;;;;;;;3364617;42;20586;-64
2022/08/28 00:22:43;;;;;;;22.70;11.40;;;;;;;;;;3364835;42;20623;-63
2022/08/28 00:25:10;;;;;;;24.25;11.30;;;;;;;;;;3366084;42;20079;-64
2022/08/28 00:27:51;;;;;;;21.38;11.13;;;;;;;;;;3365843;42;20099;-60
2022/08/28 00:30:23;;;;;;;23.05;10.98;;;;;;;;;;3366118;42;20106;-60
2022/08/28 00:32:50;;;;;;;21.10;11.38;;;;;;;;;;3365786;42;20107;-70
2022/08/28 00:35:17;;;;;;;24.80;11.87;;;;;;;;;;3365871;42;20092;-62
2022/08/28 00:37:44;;;;;;;23.33;11.85;;;;;;;;;;3366070;42;20106;-64
2022/08/28 00:40:12;;;;;;;24.25;11.73;;;;;;;;;;3365969;42;20556;-62
2022/08/28 00:42:38;;;;;;;20.23;11.43;;;;;;;;;;3365007;42;20094;-63
2022/08/28 00:45:05;;;;;;;20.52;11.43;;;;;;;;;;3366375;42;20132;-62
2022/08/28 00:47:31;;;;;;;21.37;11.47;;;;;;;;;;3366455;42;20076;-65
2022/08/28 00:49:57;;;;;;;23.88;11.50;;;;;;;;;;3367720;42;20116;-62
2022/08/28 00:52:23;;;;;;;22.42;11.18;;;;;;;;;;3366200;42;20083;-61
2022/08/28 00:54:56;;;;;;;22.25;10.95;;;;;;;;;;3366406;42;20091;-62
2022/08/28 00:57:27;;;;;;;21.85;11.27;;;;;;;;;;3366275;42;20096;-62
2022/08/28 00:59:53;;;;;;;22.27;11.13;;;;;;;;;;3366431;42;20451;-62
2022/08/28 01:02:20;;;;;;;22.52;11.60;;;;;;;;;;3367695;42;20641;-61
2022/08/28 01:04:46;;;;;;;20.85;10.88;;;;;;;;;;3367726;42;20373;-61
2022/08/28 01:07:13;;;;;;;26.20;12.38;;;;;;;;;;3358839;42;20566;-62
2022/08/28 01:09:42;;;;;;;21.13;10.75;;;;;;;;;;3367821;42;20135;-62
2022/08/28 01:12:11;;;;;;;24.30;11.20;;;;;;;;;;3358844;42;20313;-61
2022/08/28 01:14:38;;;;;;;22.90;11.43;;;;;;;;;;3366007;42;20103;-64
2022/08/28 01:17:05;;;;;;;22.85;10.85;;;;;;;;;;3367513;42;20095;-61
2022/08/28 01:19:37;;;;;;;23.92;11.25;;;;;;;;;;3366195;42;20795;-63
2022/08/28 01:22:09;;;;;;;32.13;11.82;;;;;;;;;;3359033;42;20562;-62
2022/08/28 01:24:36;;;;;;;21.93;11.27;;;;;;;;;;3366396;42;20176;-61
2022/08/28 01:27:02;;;;;;;19.48;11.20;;;;;;;;;;3359013;42;20162;-61
2022/08/28 01:29:28;;;;;;;21.00;11.50;;;;;;;;;;3368747;42;20569;-60
2022/08/28 01:31:54;;;;;;;20.13;11.20;;;;;;;;;;3367478;42;20562;-61
2022/08/28 01:34:21;;;;;;;21.77;10.90;;;;;;;;;;3367850;42;20087;-61
2022/08/28 01:36:47;;;;;;;23.77;11.73;;;;;;;;;;3367562;42;20084;-61
2022/08/28 01:39:15;;;;;;;20.35;10.95;;;;;;;;;;3372175;42;20589;-61
2022/08/28 01:41:44;;;;;;;21.98;11.05;;;;;;;;;;3365910;42;20490;-62
2022/08/28 01:44:10;;;;;;;22.10;11.30;;;;;;;;;;3365797;42;20201;-63
2022/08/28 01:46:36;;;;;;;21.17;11.00;;;;;;;;;;3367031;42;20565;-61
2022/08/28 01:49:02;;;;;;;21.30;11.32;;;;;;;;;;3367042;42;20090;-61
2022/08/28 01:51:28;;;;;;;19.83;11.05;;;;;;;;;;3365381;42;20127;-64
2022/08/28 01:53:54;;;;;;;21.00;10.88;;;;;;;;;;3366698;42;20079;-61
2022/08/28 01:56:20;;;;;;;23.27;10.80;;;;;;;;;;3366984;42;20555;-62
2022/08/28 01:58:47;;;;;;;22.20;10.73;;;;;;;;;;3366699;42;20088;-60
2022/08/28 02:01:15;;;;;;;23.17;11.13;;;;;;;;;;3365666;42;20118;-62
2022/08/28 02:03:44;;;;;;;21.05;11.15;;;;;;;;;;3366676;42;20111;-62
2022/08/28 02:06:10;;;;;;;23.70;10.98;;;;;;;;;;3366862;42;20146;-61
2022/08/28 02:08:36;;;;;;;21.30;10.70;;;;;;;;;;3365120;42;20088;-63
2022/08/28 02:11:05;;;;;;;22.27;10.88;;;;;;;;;;3365314;42;20157;-62
2022/08/28 02:13:31;;;;;;;21.95;10.93;;;;;;;;;;3366405;42;20475;-61
2022/08/28 02:15:57;;;;;;;23.45;10.88;;;;;;;;;;3365299;42;20168;-59
2022/08/28 02:18:23;;;;;;;19.83;10.53;;;;;;;;;;3365298;42;20091;-61
2022/08/28 02:20:49;;;;;;;24.90;10.97;;;;;;;;;;3366605;42;20362;-61
2022/08/28 02:23:16;;;;;;;19.95;10.02;;;;;;;;;;3366273;42;20143;-62
2022/08/28 02:25:42;;;;;;;19.13;10.25;;;;;;;;;;3365192;42;20647;-61
2022/08/28 02:28:08;;;;;;;19.40;10.23;;;;;;;;;;3365523;42;20186;-61
2022/08/28 02:30:34;;;;;;;21.30;10.50;;;;;;;;;;3364855;42;20083;-62
2022/08/28 02:33:00;;;;;;;23.03;10.50;;;;;;;;;;3365154;42;20560;-62
2022/08/28 02:35:26;;;;;;;19.58;10.07;;;;;;;;;;3366259;42;20573;-61
2022/08/28 02:37:52;;;;;;;18.65;9.88;;;;;;;;;;3366581;42;20564;-63
2022/08/28 02:40:21;;;;;;;23.08;10.10;;;;;;;;;;3366642;42;20095;-63
2022/08/28 02:42:47;;;;;;;19.47;9.40;;;;;;;;;;3366571;42;20280;-62
2022/08/28 02:45:13;;;;;;;20.08;10.10;;;;;;;;;;3366427;42;20083;-62
2022/08/28 02:47:41;;;;;;;19.35;9.85;;;;;;;;;;3366317;42;20143;-62
2022/08/28 02:50:08;;;;;;;18.60;10.35;;;;;;;;;;3364878;42;20095;-62
2022/08/28 02:52:36;;;;;;;17.27;9.70;;;;;;;;;;3366347;42;20099;-64
2022/08/28 02:55:03;;;;;;;23.73;10.27;;;;;;;;;;3365112;42;20095;-62
2022/08/28 02:57:29;;;;;;;21.05;10.55;;;;;;;;;;3366411;42;20139;-63
2022/08/28 02:59:55;;;;;;;25.52;9.77;;;;;;;;;;3366129;42;20247;-62
2022/08/28 03:02:21;;;;;;;21.67;10.70;;;;;;;;;;3366160;42;20139;-62
2022/08/28 03:04:47;;;;;;;22.30;9.80;;;;;;;;;;3361070;42;20622;-63
2022/08/28 03:07:15;;;;;;;18.95;9.52;;;;;;;;;;3366000;42;20095;-63
2022/08/28 03:09:42;;;;;;;18.17;9.77;;;;;;;;;;3366095;42;20602;-62
2022/08/28 03:12:09;;;;;;;16.20;9.70;;;;;;;;;;3366251;42;20098;-61
2022/08/28 03:14:36;;;;;;;17.25;9.65;;;;;;;;;;3366112;42;20171;-63
2022/08/28 03:17:02;;;;;;;17.40;9.90;;;;;;;;;;3366583;42;20119;-62
2022/08/28 03:19:28;;;;;;;16.67;8.85;;;;;;;;;;3366379;42;20106;-62
2022/08/28 03:21:54;;;;;;;16.77;9.63;;;;;;;;;;3365928;42;20091;-65
2022/08/28 03:24:20;;;;;;;19.02;9.60;;;;;;;;;;3364800;42;20095;-64
2022/08/28 03:26:46;;;;;;;17.33;9.57;;;;;;;;;;3366131;42;20564;-62
2022/08/28 03:29:12;;;;;;;18.13;9.40;;;;;;;;;;3366095;42;20079;-62
2022/08/28 03:31:38;;;;;;;16.65;9.50;;;;;;;;;;3365851;42;20104;-63
2022/08/28 03:34:04;;;;;;;16.67;9.77;;;;;;;;;;3366261;42;20194;-63
2022/08/28 03:36:30;;;;;;;16.60;9.02;;;;;;;;;;3364574;42;20087;-61
2022/08/28 03:38:58;;;;;;;15.60;9.53;;;;;;;;;;3365045;42;20098;-64
2022/08/28 03:41:25;;;;;;;16.73;9.18;;;;;;;;;;3358470;42;20088;-64
2022/08/28 03:43:51;;;;;;;15.60;9.02;;;;;;;;;;3365136;42;20176;-63
2022/08/28 03:46:19;;;;;;;18.23;9.52;;;;;;;;;;3365125;42;20096;-62
2022/08/28 03:48:46;;;;;;;14.93;9.17;;;;;;;;;;3366245;42;20552;-62
2022/08/28 03:51:14;;;;;;;15.35;8.90;;;;;;;;;;3365159;42;20494;-63
2022/08/28 03:53:40;;;;;;;19.25;9.63;;;;;;;;;;3372137;42;20100;-62
2022/08/28 03:56:10;;;;;;;17.00;9.88;;;;;;;;;;3369137;42;20127;-62
2022/08/28 03:58:37;;;;;;;16.45;9.18;;;;;;;;;;3360672;42;20084;-65
2022/08/28 04:01:03;;;;;;;15.63;8.80;;;;;;;;;;3362013;42;20606;-65
2022/08/28 04:03:29;;;;;;;16.48;9.23;;;;;;;;;;3359431;42;20112;-63
2022/08/28 04:05:55;;;;;;;18.65;8.98;;;;;;;;;;3361612;42;20176;-63
2022/08/28 04:08:21;;;;;;;21.95;9.48;;;;;;;;;;3365750;42;20103;-63
2022/08/28 04:10:48;;;;;;;18.00;8.90;;;;;;;;;;3365837;42;20126;-62
2022/08/28 04:13:14;;;;;;;17.67;8.57;;;;;;;;;;3364676;42;20099;-62
2022/08/28 04:15:40;;;;;;;17.08;8.85;;;;;;;;;;3366288;42;20103;-62
2022/08/28 04:18:07;;;;;;;17.63;9.00;;;;;;;;;;3365433;42;20092;-62
2022/08/28 04:20:33;;;;;;;16.60;9.27;;;;;;;;;;3366305;42;20099;-62
2022/08/28 04:23:02;;;;;;;15.13;8.60;;;;;;;;;;3366175;42;20104;-62
2022/08/28 04:25:29;;;;;;;16.77;8.68;;;;;;;;;;3367499;42;20501;-64
2022/08/28 04:27:56;;;;;;;15.02;8.05;;;;;;;;;;3367694;42;20096;-61
2022/08/28 04:30:22;;;;;;;18.13;8.60;;;;;;;;;;3365929;42;20127;-62
2022/08/28 04:32:48;;;;;;;14.73;8.75;;;;;;;;;;3366355;42;20092;-62
2022/08/28 04:35:14;;;;;;;13.33;8.27;;;;;;;;;;3368642;42;20106;-62
2022/08/28 04:37:42;;;;;;;15.50;8.57;;;;;;;;;;3367566;42;20092;-64
2022/08/28 04:40:09;;;;;;;15.45;8.38;;;;;;;;;;3365924;42;20115;-62
2022/08/28 04:42:36;;;;;;;15.93;9.00;;;;;;;;;;3367217;42;20095;-64
2022/08/28 04:45:03;;;;;;;16.73;8.52;;;;;;;;;;3365983;42;20091;-62
2022/08/28 04:47:29;;;;;;;16.03;8.40;;;;;;;;;;3365746;42;20084;-62
2022/08/28 04:49:55;;;;;;;16.90;8.55;;;;;;;;;;3365941;42;20139;-63
2022/08/28 04:52:21;;;;;;;15.88;8.77;;;;;;;;;;3367461;42;20106;-63
2022/08/28 04:54:48;;;;;;;15.27;8.80;;;;;;;;;;3367326;42;20500;-63
2022/08/28 04:57:14;;;;;;;14.57;9.10;;;;;;;;;;3366223;42;20631;-63
2022/08/28 04:59:43;;;;;;;14.77;8.52;;;;;;;;;;3367121;42;20099;-63
2022/08/28 05:02:09;;;;;;;15.95;9.00;;;;;;;;;;3367189;42;20185;-64
2022/08/28 05:04:35;;;;;;;15.50;9.07;;;;;;;;;;3367340;42;20561;-63
2022/08/28 05:07:01;;;;;;;16.90;9.43;;;;;;;;;;3367011;42;20103;-64
2022/08/28 05:09:27;;;;;;;15.63;9.03;;;;;;;;;;3368284;42;20275;-64
2022/08/28 05:11:53;;;;;;;16.02;9.48;;;;;;;;;;3367229;42;20138;-62
2022/08/28 05:14:20;;;;;;;15.88;9.38;;;;;;;;;;3365614;42;20122;-61
2022/08/28 05:16:50;;;;;;;17.38;10.00;;;;;;;;;;3362447;42;20571;-63
2022/08/28 05:19:16;;;;;;;19.03;9.27;;;;;;;;;;3363788;42;20104;-63
2022/08/28 05:21:42;;;;;;;21.13;9.57;;;;;;;;;;3365134;42;20135;-64
2022/08/28 05:24:08;;;;;;;15.48;8.93;;;;;;;;;;3364154;42;20143;-62
2022/08/28 05:26:36;;;;;;;16.25;8.82;;;;;;;;;;3361239;42;20621;-63
2022/08/28 05:29:03;;;;;;;17.90;9.50;;;;;;;;;;3365054;42;20088;-63
2022/08/28 05:31:29;;;;;;;15.83;9.30;;;;;;;;;;3367400;42;20615;-63
2022/08/28 05:33:55;;;;;;;16.45;9.10;;;;;;;;;;3365488;42;21134;-62
2022/08/28 05:36:22;;;;;;;17.30;9.10;;;;;;;;;;3362349;42;20092;-63
2022/08/28 05:38:48;;;;;;;15.35;9.15;;;;;;;;;;3367039;42;20096;-63
2022/08/28 05:41:22;;;;;;;17.13;9.32;;;;;;;;;;3367043;42;20103;-63
2022/08/28 05:43:48;;;;;;;14.27;8.67;;;;;;;;;;3365357;42;20095;-63
2022/08/28 05:46:14;;;;;;;17.35;9.23;;;;;;;;;;3367318;42;20099;-62
2022/08/28 05:48:41;;;;;;;18.88;9.40;;;;;;;;;;3367224;42;20597;-63
2022/08/28 05:51:09;;;;;;;14.90;9.07;;;;;;;;;;3363905;42;20612;-62
2022/08/28 05:53:40;;;;;;;19.67;9.43;;;;;;;;;;3366911;42;20080;-63
2022/08/28 05:56:13;;;;;;;14.97;9.50;;;;;;;;;;3365891;42;20084;-62
2022/08/28 05:58:40;;;;;;;17.33;9.52;;;;;;;;;;3366818;42;20558;-62
2022/08/28 06:01:18;;;;;;;18.73;10.00;;;;;;;;;;3365331;42;20158;-64
2022/08/28 06:03:49;;;;;;;16.95;9.75;;;;;;;;;;3365282;42;20173;-65
2022/08/28 06:06:15;;;;;;;17.25;9.35;;;;;;;;;;3366591;42;20602;-62
2022/08/28 06:08:41;;;;;;;18.60;9.83;;;;;;;;;;3366917;42;20582;-65
2022/08/28 06:11:07;;;;;;;19.13;9.23;;;;;;;;;;3366521;42;20118;-63
2022/08/28 06:13:34;;;;;;;15.48;9.48;;;;;;;;;;3366647;42;20099;-65
2022/08/28 06:16:00;;;;;;;14.45;8.73;;;;;;;;;;3366624;42;20087;-64
2022/08/28 06:18:26;;;;;;;15.37;9.23;;;;;;;;;;3361678;42;20088;-61
2022/08/28 06:20:52;;;;;;;18.17;9.45;;;;;;;;;;3360257;42;20147;-63
2022/08/28 06:23:18;;;;;;;19.83;9.85;;;;;;;;;;3361249;42;20196;-62
2022/08/28 06:25:47;;;;;;;18.05;8.93;;;;;;;;;;3362289;42;20147;-62
2022/08/28 06:28:18;;;;;;;16.88;10.05;;;;;;;;;;3361151;42;20088;-63
2022/08/28 06:30:44;;;;;;;20.67;10.30;;;;;;;;;;3361995;42;20080;-63
2022/08/28 06:33:11;;;;;;;16.00;9.75;;;;;;;;;;3362318;42;20185;-63
2022/08/28 06:35:41;;;;;;;16.83;9.88;;;;;;;;;;3360626;42;20182;-63
2022/08/28 06:38:07;;;;;;;18.10;9.88;;;;;;;;;;3361342;42;20218;-62
2022/08/28 06:40:41;;;;;;;17.98;9.05;;;;;;;;;;3360600;42;20112;-64
2022/08/28 06:43:07;;;;;;;17.30;10.33;;;;;;;;;;3361665;42;20094;-63
2022/08/28 06:45:33;;;;;;;19.80;10.20;;;;;;;;;;3365271;42;20573;-63
2022/08/28 06:47:59;;;;;;;14.60;9.50;;;;;;;;;;3366505;42;20105;-65
2022/08/28 06:50:25;;;;;;;22.02;10.18;;;;;;;;;;3366107;42;20547;-62
2022/08/28 06:52:51;;;;;;;15.93;10.20;;;;;;;;;;3366419;42;20539;-62
2022/08/28 06:55:17;;;;;;;14.83;8.67;;;;;;;;;;3366821;42;20366;-63
2022/08/28 06:57:43;;;;;;;15.30;8.68;;;;;;;;;;3366679;42;20149;-63
2022/08/28 07:00:10;;;;;;;15.23;8.95;;;;;;;;;;3366231;42;20602;-64
2022/08/28 07:02:36;;;;;;;16.17;9.20;;;;;;;;;;3366495;42;20088;-63
2022/08/28 07:05:02;;;;;;;16.43;9.47;;;;;;;;;;3366059;42;20167;-63
2022/08/28 07:07:28;;;;;;;14.80;8.75;;;;;;;;;;3363322;42;20159;-64
2022/08/28 07:09:54;;;;;;;15.43;9.20;;;;;;;;;;3359488;42;20174;-63
2022/08/28 07:12:20;;;;;;;17.30;8.85;;;;;;;;;;3362591;42;20088;-62
2022/08/28 07:14:46;;;;;;;13.07;7.93;;;;;;;;;;3360975;42;20193;-61
2022/08/28 07:17:12;;;;;;;17.00;9.38;;;;;;;;;;3361421;42;20180;-65
2022/08/28 07:19:38;;;;;;;15.30;8.90;;;;;;;;;;3364836;42;20164;-62
2022/08/28 07:22:04;;;;;;;18.13;8.38;;;;;;;;;;3366073;42;20108;-62
2022/08/28 07:24:30;;;;;;;13.73;8.20;;;;;;;;;;3366041;42;20098;-61
2022/08/28 07:26:56;;;;;;;13.73;8.85;;;;;;;;;;3366615;42;20076;-64
2022/08/28 07:29:22;;;;;;;14.75;8.40;;;;;;;;;;3366124;42;20879;-62
2022/08/28 07:31:50;;;;;;;13.35;8.23;;;;;;;;;;3366080;42;20113;-63
2022/08/28 07:34:17;;;;;;;16.60;8.73;;;;;;;;;;3364977;42;20135;-63
2022/08/28 07:36:43;;;;;;;16.23;9.05;;;;;;;;;;3364648;42;20578;-64
2022/08/28 07:39:10;;;;;;;16.92;9.43;;;;;;;;;;3364818;42;20098;-65
2022/08/28 07:41:38;;;;;;;16.17;8.55;;;;;;;;;;3364316;42;20635;-63
2022/08/28 07:46:54;;;;;;;13.00;8.30;;;;;;;;;;3365252;42;20107;-62
2022/08/28 07:49:20;;;;;;;16.02;7.93;;;;;;;;;;3363810;42;20106;-64
2022/08/28 07:51:46;;;;;;;16.27;8.50;;;;;;;;;;3365636;42;20091;-61
2022/08/28 07:54:12;;;;;;;12.38;8.20;;;;;;;;;;3366489;42;20550;-63
2022/08/28 07:56:39;;;;;;;16.30;8.97;;;;;;;;;;3364217;42;20095;-62
2022/08/28 07:59:05;;;;;;;13.13;8.40;;;;;;;;;;3365967;42;20177;-62
2022/08/28 08:01:38;;;;;;;14.40;8.95;;;;;;;;;;3371614;42;20091;-62
2022/08/28 08:04:08;;;;;;;14.45;8.55;;;;;;;;;;3365453;42;20513;-62
2022/08/28 08:06:35;;;;;;;23.17;13.43;;;;;;;;;;3365893;42;20550;-62
2022/08/28 08:09:03;;;;;;;16.23;8.97;;;;;;;;;;3365985;42;20076;-63
2022/08/28 08:11:29;;;;;;;16.30;9.05;;;;;;;;;;3364557;42;20123;-62
2022/08/28 08:13:56;;;;;;;15.85;8.82;;;;;;;;;;3365948;42;20100;-62
2022/08/28 08:16:23;;;;;;;13.27;7.65;;;;;;;;;;3365611;42;20083;-62
2022/08/28 08:18:51;;;;;;;13.48;7.70;;;;;;;;;;3364234;42;20135;-61
2022/08/28 08:21:18;;;;;;;12.97;7.53;;;;;;;;;;3365660;42;20166;-61
2022/08/28 08:23:45;;;;;;;13.52;7.60;;;;;;;;;;3364250;42;20080;-61
2022/08/28 08:26:13;;;;;;;14.63;7.63;;;;;;;;;;3364555;42;20589;-62
2022/08/28 08:28:39;;;;;;;13.45;7.05;;;;;;;;;;3365853;42;20576;-62
2022/08/28 08:31:12;;;;;;;11.82;7.20;;;;;;;;;;3365841;42;20127;-62
2022/08/28 08:33:41;;;;;;;17.00;7.70;;;;;;;;;;3365998;42;20156;-62
2022/08/28 08:36:08;;;;;;;13.25;7.20;;;;;;;;;;3365944;42;20679;-62
2022/08/28 08:38:34;;;;;;;12.88;7.05;;;;;;;;;;3364371;42;20506;-62
2022/08/28 08:41:00;;;;;;;14.80;7.22;;;;;;;;;;3369336;42;20592;-62
2022/08/28 08:43:28;;;;;;;11.48;7.20;;;;;;;;;;3364146;42;20083;-62
2022/08/28 08:45:54;;;;;;;13.57;6.77;;;;;;;;;;3363995;42;20080;-62
2022/08/28 08:48:33;;;;;;;10.55;6.38;;;;;;;;;;3365476;42;20107;-61
2022/08/28 08:51:02;;;;;;;13.38;7.00;;;;;;;;;;3365108;42;20127;-65
2022/08/28 08:54:02;;;;;;;15.40;7.75;;;;;;;;;;3363678;42;20102;-62
2022/08/28 08:56:28;;;;;;;10.95;6.80;;;;;;;;;;3364395;42;20575;-62
2022/08/28 08:58:55;;;;;;;12.30;7.50;;;;;;;;;;3364181;42;20088;-62
2022/08/28 09:01:35;;;;;;;12.52;7.03;;;;;;;;;;3365567;42;20127;-64
2022/08/28 09:04:39;;;;;;;13.90;7.13;;;;;;;;;;3364890;42;20615;-63
2022/08/28 09:07:19;;;;;;;15.05;6.97;;;;;;;;;;3362594;42;20143;-63
2022/08/28 09:09:51;;;;;;;11.53;6.90;;;;;;;;;;3365906;42;20098;-64
2022/08/28 09:12:28;;;;;;;12.27;6.90;;;;;;;;;;3365912;42;20151;-64
2022/08/28 09:15:28;;;;;;;12.20;6.90;;;;;;;;;;3367228;42;20510;-63
2022/08/28 09:17:56;;;;;;;13.38;6.55;;;;;;;;;;3359387;42;20584;-62
2022/08/28 09:20:26;;;;;;;11.90;6.43;;;;;;;;;;3363954;42;20501;-62
2022/08/28 09:22:52;;;;;;;14.93;6.27;;;;;;;;;;3362242;42;20143;-62
2022/08/28 09:25:43;;;;;;;12.75;6.85;;;;;;;;;;3362615;42;20702;-61
2022/08/28 09:28:13;;;;;;;12.77;6.65;;;;;;;;;;3361411;42;20119;-63
2022/08/28 09:30:40;;;;;;;13.38;7.38;;;;;;;;;;3360005;42;20096;-61
2022/08/28 09:33:06;;;;;;;11.73;6.55;;;;;;;;;;3363599;42;20088;-62
2022/08/28 09:35:34;;;;;;;10.30;6.37;;;;;;;;;;3363555;42;20487;-63
2022/08/28 09:38:16;;;;;;;13.07;7.03;;;;;;;;;;3362266;42;20104;-61
2022/08/28 09:43:26;;;;;;;11.55;6.70;;;;;;;;;;3360812;42;20696;-63
2022/08/28 09:45:57;;;;;;;11.03;6.90;;;;;;;;;;3361262;42;20092;-61
2022/08/28 09:48:30;;;;;;;13.07;7.30;;;;;;;;;;3363276;42;20577;-63
2022/08/28 09:50:57;;;;;;;13.88;7.05;;;;;;;;;;3362297;42;20229;-61
2022/08/28 09:53:23;;;;;;;12.20;7.00;;;;;;;;;;3361576;42;20084;-62
2022/08/28 09:56:40;;;;;;;12.90;6.90;;;;;;;;;;3363507;42;20139;-61
2022/08/28 09:59:19;;;;;;;13.07;6.80;;;;;;;;;;3344660;42;20562;-62
2022/08/28 10:01:46;;;;;;;13.52;7.53;;;;;;;;;;3366617;42;20099;-62
2022/08/28 10:04:19;;;;;;;11.90;7.10;;;;;;;;;;3366174;42;20087;-63
2022/08/28 10:06:56;;;;;;;13.70;6.80;;;;;;;;;;3366353;42;20088;-62
2022/08/28 10:09:32;;;;;;;14.18;7.30;;;;;;;;;;3364726;42;20125;-61
2022/08/28 10:12:26;;;;;;;11.63;7.03;;;;;;;;;;3365034;42;20090;-61
2022/08/28 10:15:01;;;;;;;13.60;7.53;;;;;;;;;;3366271;42;20587;-61
2022/08/28 10:17:48;;;;;;;12.52;7.25;;;;;;;;;;3367482;42;20106;-61
2022/08/28 10:20:19;;;;;;;17.63;7.15;;;;;;;;;;3366002;42;20154;-62
2022/08/28 10:22:56;;;;;;;12.18;7.07;;;;;;;;;;3365405;42;20087;-61
2022/08/28 10:25:32;;;;;;;12.80;7.30;;;;;;;;;;3364595;42;20114;-62
2022/08/28 10:28:07;;;;;;;13.52;7.53;;;;;;;;;;3365143;42;20107;-62
2022/08/28 10:30:37;;;;;;;11.57;7.00;;;;;;;;;;3366726;42;20172;-60
2022/08/28 10:33:49;;;;;;;12.80;7.35;;;;;;;;;;3361230;42;20107;-61
2022/08/28 10:36:23;;;;;;;12.68;7.97;;;;;;;;;;3345973;42;20504;-62
2022/08/28 10:39:28;;;;;;;12.20;7.33;;;;;;;;;;3364989;42;20119;-60
2022/08/28 10:41:57;;;;;;;12.10;7.28;;;;;;;;;;3354816;42;20234;-61
2022/08/28 10:44:28;;;;;;;12.52;7.00;;;;;;;;;;3361068;42;20222;-61
2022/08/28 10:46:56;;;;;;;14.23;7.13;;;;;;;;;;3364805;42;20614;-62
2022/08/28 10:49:40;;;;;;;14.63;7.43;;;;;;;;;;3357625;42;20219;-62
2022/08/28 10:52:07;;;;;;;14.27;6.80;;;;;;;;;;3365171;42;20493;-62
2022/08/28 10:54:38;;;;;;;13.05;7.25;;;;;;;;;;3366157;42;20118;-63
2022/08/28 10:57:05;;;;;;;12.77;7.40;;;;;;;;;;3364934;42;20184;-63
2022/08/28 10:59:31;;;;;;;14.00;7.07;;;;;;;;;;3366086;42;20163;-62
2022/08/28 11:01:57;;;;;;;12.05;6.90;;;;;;;;;;3366099;42;20103;-62
2022/08/28 11:04:23;;;;;;;11.47;6.87;;;;;;;;;;3363346;42;20135;-62
2022/08/28 11:06:51;;;;;;;14.93;7.15;;;;;;;;;;3364117;42;20083;-62
2022/08/28 11:09:36;;;;;;;13.05;7.13;;;;;;;;;;3364797;42;20140;-61
2022/08/28 11:12:18;;;;;;;13.95;7.95;;;;;;;;;;3364514;42;20179;-62
2022/08/28 11:14:49;;;;;;;14.25;7.25;;;;;;;;;;3366111;42;20186;-62
2022/08/28 11:17:21;;;;;;;11.93;7.03;;;;;;;;;;3365748;42;20124;-62
2022/08/28 11:20:07;;;;;;;12.38;6.97;;;;;;;;;;3365661;42;20124;-61
2022/08/28 11:22:50;;;;;;;15.32;7.45;;;;;;;;;;3364525;42;20084;-61
2022/08/28 11:25:21;;;;;;;11.93;7.22;;;;;;;;;;3364336;42;20679;-61
2022/08/28 11:28:09;;;;;;;13.60;7.35;;;;;;;;;;3364656;42;20096;-62
2022/08/28 11:30:37;;;;;;;15.00;7.27;;;;;;;;;;3365541;42;20556;-61
2022/08/28 11:33:05;;;;;;;13.07;7.40;;;;;;;;;;3364277;42;20080;-61
2022/08/28 11:35:46;;;;;;;11.43;7.13;;;;;;;;;;3364485;42;20138;-62
2022/08/28 11:38:32;;;;;;;13.65;7.55;;;;;;;;;;3362888;42;20162;-62
2022/08/28 11:41:08;;;;;;;13.10;7.63;;;;;;;;;;3358475;42;20139;-62
2022/08/28 11:43:35;;;;;;;13.10;7.40;;;;;;;;;;3364239;42;20622;-62
2022/08/28 11:46:05;;;;;;;10.98;7.15;;;;;;;;;;3365838;42;20557;-62
2022/08/28 11:48:35;;;;;;;12.73;7.60;;;;;;;;;;3365369;42;20148;-62
2022/08/28 11:51:05;;;;;;;13.40;7.22;;;;;;;;;;3366431;42;20089;-62
2022/08/28 11:53:44;;;;;;;11.75;6.88;;;;;;;;;;3364112;42;20178;-62
2022/08/28 11:56:35;;;;;;;13.10;7.63;;;;;;;;;;3365267;42;20083;-61
2022/08/28 11:59:43;;;;;;;12.68;6.97;;;;;;;;;;3365493;42;20198;-61
2022/08/28 12:02:47;;;;;;;14.57;7.40;;;;;;;;;;3336622;42;20627;-62
2022/08/28 12:05:15;;;;;;;14.48;7.75;;;;;;;;;;3361501;42;20091;-61
2022/08/28 12:07:41;;;;;;;13.57;6.97;;;;;;;;;;3366499;42;20565;-62
2022/08/28 12:10:23;;;;;;;13.03;7.33;;;;;;;;;;3366348;42;20712;-62
2022/08/28 12:12:52;;;;;;;14.13;7.32;;;;;;;;;;3365824;42;20095;-62
2022/08/28 12:15:27;;;;;;;13.90;7.35;;;;;;;;;;3365392;42;20498;-63
2022/08/28 12:17:57;;;;;;;11.55;7.05;;;;;;;;;;3366449;42;20091;-62
2022/08/28 12:20:45;;;;;;;13.00;7.20;;;;;;;;;;3365349;42;20087;-62
2022/08/28 12:23:35;;;;;;;12.52;7.47;;;;;;;;;;3364026;42;20106;-63
2022/08/28 12:26:08;;;;;;;15.00;7.80;;;;;;;;;;3363868;42;20603;-62
2022/08/28 12:29:02;;;;;;;13.18;7.20;;;;;;;;;;3364232;42;20548;-61
2022/08/28 12:34:45;;;;;;;13.10;6.97;;;;;;;;;;3365500;42;20704;-62
2022/08/28 12:37:30;;;;;;;11.23;7.28;;;;;;;;;;3362256;42;20096;-62
2022/08/28 12:39:58;;;;;;;12.73;7.43;;;;;;;;;;3367700;42;20091;-62
2022/08/28 12:42:29;;;;;;;11.85;7.25;;;;;;;;;;3365643;42;20084;-63
2022/08/28 12:44:59;;;;;;;13.95;7.72;;;;;;;;;;3357790;42;20143;-62
2022/08/28 12:47:26;;;;;;;15.20;7.33;;;;;;;;;;3365503;42;20099;-62
2022/08/28 12:49:53;;;;;;;16.33;7.93;;;;;;;;;;3365887;42;20127;-62
2022/08/28 12:52:21;;;;;;;17.02;7.90;;;;;;;;;;3365769;42;20107;-62
2022/08/28 12:54:48;;;;;;;14.70;7.53;;;;;;;;;;3367109;42;20131;-61
2022/08/28 12:57:18;;;;;;;15.13;7.68;;;;;;;;;;3365448;42;20254;-63
2022/08/28 12:59:52;;;;;;;14.53;7.27;;;;;;;;;;3361488;42;20139;-62
2022/08/28 13:02:33;;;;;;;12.50;7.57;;;;;;;;;;3364543;42;20135;-62
2022/08/28 13:05:01;;;;;;;12.20;7.13;;;;;;;;;;3354191;42;20659;-61
2022/08/28 13:07:33;;;;;;;16.95;7.70;;;;;;;;;;3363878;42;20108;-61
2022/08/28 13:10:02;;;;;;;12.25;7.10;;;;;;;;;;3356533;42;20088;-62
2022/08/28 13:12:30;;;;;;;13.27;7.47;;;;;;;;;;3357128;42;20107;-62
2022/08/28 13:14:56;;;;;;;12.57;6.90;;;;;;;;;;3364963;42;20147;-61
2022/08/28 13:17:44;;;;;;;12.68;7.18;;;;;;;;;;3359554;42;20559;-61
2022/08/28 13:20:22;;;;;;;13.00;7.38;;;;;;;;;;3359269;42;20115;-61
2022/08/28 13:22:48;;;;;;;13.90;7.43;;;;;;;;;;3360451;42;20134;-62
2022/08/28 13:25:19;;;;;;;15.23;7.63;;;;;;;;;;3358699;42;20775;-62
2022/08/28 13:27:53;;;;;;;11.65;7.13;;;;;;;;;;3353084;42;20092;-62
2022/08/28 13:30:28;;;;;;;16.67;7.40;;;;;;;;;;3358631;42;20578;-64
2022/08/28 13:33:21;;;;;;;14.93;7.53;;;;;;;;;;3365607;42;20119;-64
2022/08/28 13:35:47;;;;;;;13.63;7.78;;;;;;;;;;3362174;42;20110;-62
2022/08/28 13:38:15;;;;;;;12.90;7.57;;;;;;;;;;3365724;42;20502;-62
2022/08/28 13:40:58;;;;;;;13.50;7.65;;;;;;;;;;3367177;42;20099;-61
2022/08/28 13:43:26;;;;;;;13.93;7.82;;;;;;;;;;3365111;42;20708;-62
2022/08/28 13:45:52;;;;;;;14.23;7.70;;;;;;;;;;3367066;42;20080;-60
2022/08/28 13:48:21;;;;;;;13.60;7.50;;;;;;;;;;3366674;42;20102;-61
2022/08/28 13:50:50;;;;;;;11.77;7.70;;;;;;;;;;3366701;42;20096;-62
2022/08/28 13:53:17;;;;;;;13.70;7.55;;;;;;;;;;3365226;42;20095;-61
2022/08/28 13:55:43;;;;;;;17.42;8.30;;;;;;;;;;3365310;42;20089;-62
2022/08/28 13:58:09;;;;;;;14.98;7.82;;;;;;;;;;3366907;42;20613;-62
2022/08/28 14:00:37;;;;;;;15.83;7.90;;;;;;;;;;3372670;42;20107;-62
2022/08/28 14:05:47;;;;;;;19.65;7.85;;;;;;;;;;3366728;42;20159;-61
2022/08/28 14:08:13;;;;;;;15.45;7.20;;;;;;;;;;3365995;42;20135;-61
2022/08/28 14:10:39;;;;;;;17.98;8.10;;;;;;;;;;3366625;42;20095;-63
2022/08/28 14:13:05;;;;;;;20.97;7.97;;;;;;;;;;3366210;42;20119;-62
2022/08/28 14:15:31;;;;;;;18.90;8.25;;;;;;;;;;3364933;42;20572;-61
2022/08/28 14:17:57;;;;;;;20.85;7.88;;;;;;;;;;3364825;42;20084;-59
2022/08/28 14:20:23;;;;;;;18.65;8.05;;;;;;;;;;3364570;42;20177;-62
2022/08/28 14:22:49;;;;;;;14.53;7.97;;;;;;;;;;3365803;42;20087;-63
2022/08/28 14:25:15;;;;;;;14.37;7.70;;;;;;;;;;3366221;42;20876;-62
2022/08/28 14:27:41;;;;;;;15.05;8.30;;;;;;;;;;3366376;42;20092;-61
2022/08/28 14:30:07;;;;;;;22.08;9.23;;;;;;;;;;3366261;42;20088;-62
2022/08/28 14:32:34;;;;;;;14.45;8.00;;;;;;;;;;3366484;42;20191;-62
2022/08/28 14:35:00;;;;;;;14.93;7.50;;;;;;;;;;3365962;42;20088;-62
2022/08/28 14:37:26;;;;;;;18.83;7.63;;;;;;;;;;3365539;42;20103;-61
2022/08/28 14:39:52;;;;;;;16.15;8.55;;;;;;;;;;3365004;42;20088;-62
2022/08/28 14:42:18;;;;;;;21.42;10.98;;;;;;;;;;3356487;42;20150;-62
2022/08/28 14:44:44;;;;;;;23.33;8.87;;;;;;;;;;3366350;42;20173;-61
2022/08/28 14:47:10;;;;;;;22.50;8.43;;;;;;;;;;3364820;42;20179;-61
2022/08/28 14:49:36;;;;;;;18.77;7.95;;;;;;;;;;3364371;42;20178;-62
2022/08/28 14:52:02;;;;;;;23.58;8.18;;;;;;;;;;3365939;42;20463;-62